Queen Of Burnaby — VCVV — position and weather

sailwx.info

Track history (hours):
 
Tides and Currents Weather Stations Pressure Air Temp Water Temp Dewpoint Dewpoint Depression Visibility Wind Speed Wind Dir Waves Ship Positions

Queen Of Burnaby

Last reported at 2015-May-28 17:33 UTC. Time now 2015-May-29 02:21 UTC.
Position N 49°46' W 124°48'.

Length 130 m; draft 4 m.

Type: Passenger vessel. MMSI: 316001246.

Date/timePositionNaut miles runAvg speedWind from/ knotsBaromVisibWave heightAir tempDewpointWater temp
2015-May-28 17:33N 49°46' W 124°48'7 2.4
2015-May-28 14:33N 49°50' W 124°38'7 0.6
2015-May-28 02:30N 49°46' W 124°48'0 0.0
2015-May-27 17:32N 49°46' W 124°48'7 2.3
2015-May-27 14:32N 49°49' W 124°38'11 0.9
2015-May-27 02:24N 49°45' W 124°53'7 2.2
2015-May-26 23:07N 49°47' W 124°43'3 0.6
2015-May-26 17:32N 49°46' W 124°48'7 2.4
2015-May-26 14:28N 49°49' W 124°37'3 0.3
2015-May-26 03:26N 49°50' W 124°33'1314.4
2015-May-26 02:30N 49°45' W 124°52'13 1.6
2015-May-25 18:15N 49°50' W 124°34'913.1
2015-May-25 17:33N 49°46' W 124°47'6 2.0
2015-May-25 14:30N 49°49' W 124°38'2 0.2
2015-May-25 03:33N 49°48' W 124°41'3 0.9
2015-May-25 00:26N 49°50' W 124°37'4 0.9
2015-May-24 19:28N 49°47' W 124°43'7 5.8
2015-May-24 18:17N 49°50' W 124°33'1012.7
2015-May-24 17:29N 49°46' W 124°48'7 2.5
2015-May-24 14:31N 49°49' W 124°37'7 0.6
2015-May-24 02:27N 49°47' W 124°47'1 0.1
2015-May-23 17:28N 49°46' W 124°48'2 0.5
2015-May-23 14:06N 49°47' W 124°45'5 0.4
2015-May-23 03:08N 49°49' W 124°39'4 1.1
2015-May-22 23:32N 49°50' W 124°33'1413.7
2015-May-22 22:32N 49°45' W 124°53'11 1.3
2015-May-22 14:29N 49°49' W 124°37'1 0.1
2015-May-22 03:15N 49°49' W 124°37'1114.7
2015-May-22 02:31N 49°45' W 124°52'1 0.3
2015-May-21 22:27N 49°45' W 124°54'12 2.8
2015-May-21 18:10N 49°50' W 124°36'913.7
2015-May-21 17:31N 49°47' W 124°49'8 2.8
2015-May-21 14:33N 49°49' W 124°37'7 0.6
2015-May-21 02:33N 49°46' W 124°47'6 1.8
2015-May-20 23:29N 49°44' W 124°55'13 2.4
2015-May-20 18:05N 49°49' W 124°37'713.3
2015-May-20 17:33N 49°47' W 124°47'5 3.6
2015-May-20 16:17N 49°45' W 124°53'12 6.6
2015-May-20 14:32N 49°49' W 124°37'2 0.2
2015-May-20 03:03N 49°48' W 124°40'815.0
2015-May-20 02:32N 49°46' W 124°51'1 0.1
2015-May-19 22:32N 49°45' W 124°52'10 2.1
2015-May-19 18:03N 49°49' W 124°38'713.9
2015-May-19 17:33N 49°46' W 124°48'8 2.6
2015-May-19 14:30N 49°49' W 124°37'1 0.1
2015-May-19 03:09N 49°49' W 124°38'914.8
2015-May-19 02:33N 49°46' W 124°51'9 1.2
2015-May-18 19:25N 49°49' W 124°38'3 2.8
2015-May-18 18:18N 49°50' W 124°34'912.0
2015-May-18 17:33N 49°47' W 124°47'  
Track history (hours):
 
Tides and Currents Weather Stations Pressure Air Temp Water Temp Dewpoint Dewpoint Depression Visibility Wind Speed Wind Dir Waves Ship Positions

Queen Of Burnaby

Last reported at 2015-May-28 17:33 UTC. Time now 2015-May-29 02:21 UTC.
Position N 49°46' W 124°48'.

Length 130 m; draft 4 m.

Type: Passenger vessel. MMSI: 316001246.

Date/timePositionNaut miles runAvg speedWind from/ knotsBaromVisibWave heightAir tempDewpointWater temp
2015-May-28 17:33N 49°46' W 124°48'7 2.4
2015-May-28 14:33N 49°50' W 124°38'7 0.6
2015-May-28 02:30N 49°46' W 124°48'0 0.0
2015-May-27 17:32N 49°46' W 124°48'7 2.3
2015-May-27 14:32N 49°49' W 124°38'11 0.9
2015-May-27 02:24N 49°45' W 124°53'7 2.2
2015-May-26 23:07N 49°47' W 124°43'3 0.6
2015-May-26 17:32N 49°46' W 124°48'7 2.4
2015-May-26 14:28N 49°49' W 124°37'3 0.3
2015-May-26 03:26N 49°50' W 124°33'1314.4
2015-May-26 02:30N 49°45' W 124°52'13 1.6
2015-May-25 18:15N 49°50' W 124°34'913.1
2015-May-25 17:33N 49°46' W 124°47'6 2.0
2015-May-25 14:30N 49°49' W 124°38'2 0.2
2015-May-25 03:33N 49°48' W 124°41'3 0.9
2015-May-25 00:26N 49°50' W 124°37'4 0.9
2015-May-24 19:28N 49°47' W 124°43'7 5.8
2015-May-24 18:17N 49°50' W 124°33'1012.7
2015-May-24 17:29N 49°46' W 124°48'7 2.5
2015-May-24 14:31N 49°49' W 124°37'7 0.6
2015-May-24 02:27N 49°47' W 124°47'1 0.1
2015-May-23 17:28N 49°46' W 124°48'2 0.5
2015-May-23 14:06N 49°47' W 124°45'5 0.4
2015-May-23 03:08N 49°49' W 124°39'4 1.1
2015-May-22 23:32N 49°50' W 124°33'1413.7
2015-May-22 22:32N 49°45' W 124°53'11 1.3
2015-May-22 14:29N 49°49' W 124°37'1 0.1
2015-May-22 03:15N 49°49' W 124°37'1114.7
2015-May-22 02:31N 49°45' W 124°52'1 0.3
2015-May-21 22:27N 49°45' W 124°54'12 2.8
2015-May-21 18:10N 49°50' W 124°36'913.7
2015-May-21 17:31N 49°47' W 124°49'8 2.8
2015-May-21 14:33N 49°49' W 124°37'7 0.6
2015-May-21 02:33N 49°46' W 124°47'6 1.8
2015-May-20 23:29N 49°44' W 124°55'13 2.4
2015-May-20 18:05N 49°49' W 124°37'713.3
2015-May-20 17:33N 49°47' W 124°47'5 3.6
2015-May-20 16:17N 49°45' W 124°53'12 6.6
2015-May-20 14:32N 49°49' W 124°37'2 0.2
2015-May-20 03:03N 49°48' W 124°40'815.0
2015-May-20 02:32N 49°46' W 124°51'1 0.1
2015-May-19 22:32N 49°45' W 124°52'10 2.1
2015-May-19 18:03N 49°49' W 124°38'713.9
2015-May-19 17:33N 49°46' W 124°48'8 2.6
2015-May-19 14:30N 49°49' W 124°37'1 0.1
2015-May-19 03:09N 49°49' W 124°38'914.8
2015-May-19 02:33N 49°46' W 124°51'9 1.2
2015-May-18 19:25N 49°49' W 124°38'3 2.8
2015-May-18 18:18N 49°50' W 124°34'912.0
2015-May-18 17:33N 49°47' W 124°47'  

Dump ship's entire track history